Terminal Aerodrome Forecast
Issued by NWS

Home | Current Version | Previous Version | Text Only | Print | Product List | Glossary On
Versions: 1 2 3 4 5 6 7 8 9 10 11 12
538
FTUS45 KVEF 071120
TAFVGT
TAF
KVGT 071120Z 0712/0812 32008KT P6SM FEW250
     FM071500 36008KT P6SM FEW250
     FM072100 03011KT P6SM FEW250
     FM080300 35008KT P6SM FEW250=

USA.gov is the U.S. government's official web portal to all federal, state and local government web resources and services.